Search for airport 
image banner adimage banner adimage banner ad
image banner ad

NV86 - Sunrise Medical Center

Located in Las Vegas, United States

ICAO - NV86, IATA -

Data provided by Airmate  

General information

Coordinates: N36°7'57" W115°8'8"
Elevation is 2037 feet MSL.
 
View others Airports in Nevada

Operational data

Special qualification required
Current time UTC:
Current local time:
Weather at : KLAS - Mc Carran Intl ( 6 km )
METAR: KLAS 131056Z 00000KT 10SM FEW250 26/M06 A2981 RMK AO2 SLP062 T02561061
TAF: KLAS 131120Z 1312/1418 VRB05KT P6SM FEW250 FM131700 13007KT P6SM SKC FM132100 20015G25KT P6SM SKC FM140300 23010KT P6SM SKC FM141400 VRB05KT P6SM SKC
View NOTAMs / SUP AIP / TFR affecting this airport [VIEW]
Communications frequencies: [VIEW]

Runways:

Airport contact information

Address: Las Vegas United States

Satellite view of NV86